sensor_id;sensor_type;location;lat;lon;timestamp;temperature;humidity
48806;DHT22;34625;47.176;27.548;2023-04-25T00:00:51;23.10;53.30
48806;DHT22;34625;47.176;27.548;2023-04-25T00:03:18;23.30;53.50
48806;DHT22;34625;47.176;27.548;2023-04-25T00:05:45;23.10;53.40
48806;DHT22;34625;47.176;27.548;2023-04-25T00:08:11;23.10;53.40
48806;DHT22;34625;47.176;27.548;2023-04-25T00:10:37;23.00;53.50
48806;DHT22;34625;47.176;27.548;2023-04-25T00:13:03;23.00;53.60
48806;DHT22;34625;47.176;27.548;2023-04-25T00:15:30;23.10;53.70
48806;DHT22;34625;47.176;27.548;2023-04-25T00:17:56;22.90;53.60
48806;DHT22;34625;47.176;27.548;2023-04-25T00:20:22;22.90;53.80
48806;DHT22;34625;47.176;27.548;2023-04-25T00:22:49;23.00;53.70
48806;DHT22;34625;47.176;27.548;2023-04-25T00:25:15;23.00;53.50
48806;DHT22;34625;47.176;27.548;2023-04-25T00:27:41;23.10;53.40
48806;DHT22;34625;47.176;27.548;2023-04-25T00:30:08;23.10;53.30
48806;DHT22;34625;47.176;27.548;2023-04-25T00:32:34;23.10;53.30
48806;DHT22;34625;47.176;27.548;2023-04-25T00:35:00;23.10;53.40
48806;DHT22;34625;47.176;27.548;2023-04-25T00:37:26;23.20;53.40
48806;DHT22;34625;47.176;27.548;2023-04-25T00:39:52;23.10;53.40
48806;DHT22;34625;47.176;27.548;2023-04-25T00:42:20;23.10;53.60
48806;DHT22;34625;47.176;27.548;2023-04-25T00:44:47;23.10;53.50
48806;DHT22;34625;47.176;27.548;2023-04-25T00:47:14;23.00;53.60
48806;DHT22;34625;47.176;27.548;2023-04-25T00:49:40;23.00;53.80
48806;DHT22;34625;47.176;27.548;2023-04-25T00:52:06;23.00;53.70
48806;DHT22;34625;47.176;27.548;2023-04-25T00:54:33;23.00;53.70
48806;DHT22;34625;47.176;27.548;2023-04-25T00:56:59;23.10;53.80
48806;DHT22;34625;47.176;27.548;2023-04-25T00:59:27;23.10;53.90
48806;DHT22;34625;47.176;27.548;2023-04-25T01:01:54;23.10;53.90
48806;DHT22;34625;47.176;27.548;2023-04-25T01:04:20;23.10;53.90
48806;DHT22;34625;47.176;27.548;2023-04-25T01:06:47;23.10;54.00
48806;DHT22;34625;47.176;27.548;2023-04-25T01:09:13;23.00;53.90
48806;DHT22;34625;47.176;27.548;2023-04-25T01:11:40;22.90;54.00
48806;DHT22;34625;47.176;27.548;2023-04-25T01:14:06;23.00;53.90
48806;DHT22;34625;47.176;27.548;2023-04-25T01:16:32;23.00;53.70
48806;DHT22;34625;47.176;27.548;2023-04-25T01:18:59;23.10;53.80
48806;DHT22;34625;47.176;27.548;2023-04-25T01:21:25;23.00;53.80
48806;DHT22;34625;47.176;27.548;2023-04-25T01:23:54;22.90;53.90
48806;DHT22;34625;47.176;27.548;2023-04-25T01:26:21;22.90;54.10
48806;DHT22;34625;47.176;27.548;2023-04-25T01:28:48;23.00;54.20
48806;DHT22;34625;47.176;27.548;2023-04-25T01:31:15;22.90;54.20
48806;DHT22;34625;47.176;27.548;2023-04-25T01:33:44;22.90;54.00
48806;DHT22;34625;47.176;27.548;2023-04-25T01:36:10;22.90;54.00
48806;DHT22;34625;47.176;27.548;2023-04-25T01:38:37;22.90;54.00
48806;DHT22;34625;47.176;27.548;2023-04-25T01:41:03;22.80;53.70
48806;DHT22;34625;47.176;27.548;2023-04-25T01:43:29;22.90;53.90
48806;DHT22;34625;47.176;27.548;2023-04-25T01:45:55;22.90;52.90
48806;DHT22;34625;47.176;27.548;2023-04-25T01:48:22;22.90;53.80
48806;DHT22;34625;47.176;27.548;2023-04-25T01:50:48;22.90;54.00
48806;DHT22;34625;47.176;27.548;2023-04-25T01:53:14;22.90;54.10
48806;DHT22;34625;47.176;27.548;2023-04-25T01:55:43;22.80;54.00
48806;DHT22;34625;47.176;27.548;2023-04-25T01:58:12;22.90;54.10
48806;DHT22;34625;47.176;27.548;2023-04-25T02:01:08;22.80;54.00
48806;DHT22;34625;47.176;27.548;2023-04-25T02:03:41;22.90;53.90
48806;DHT22;34625;47.176;27.548;2023-04-25T02:06:15;22.90;53.90
48806;DHT22;34625;47.176;27.548;2023-04-25T02:08:44;22.70;54.10
48806;DHT22;34625;47.176;27.548;2023-04-25T02:11:11;22.90;54.40
48806;DHT22;34625;47.176;27.548;2023-04-25T02:13:43;22.90;54.40
48806;DHT22;34625;47.176;27.548;2023-04-25T02:16:24;22.80;54.00
48806;DHT22;34625;47.176;27.548;2023-04-25T02:18:51;22.90;53.90
48806;DHT22;34625;47.176;27.548;2023-04-25T02:21:19;22.90;54.00
48806;DHT22;34625;47.176;27.548;2023-04-25T02:23:45;22.90;54.10
48806;DHT22;34625;47.176;27.548;2023-04-25T02:26:14;22.90;54.00
48806;DHT22;34625;47.176;27.548;2023-04-25T02:28:41;22.90;54.00
48806;DHT22;34625;47.176;27.548;2023-04-25T02:31:07;22.90;54.00
48806;DHT22;34625;47.176;27.548;2023-04-25T02:33:33;22.90;54.20
48806;DHT22;34625;47.176;27.548;2023-04-25T02:36:00;22.90;54.10
48806;DHT22;34625;47.176;27.548;2023-04-25T02:38:26;22.90;54.20
48806;DHT22;34625;47.176;27.548;2023-04-25T02:40:52;22.90;54.10
48806;DHT22;34625;47.176;27.548;2023-04-25T02:43:18;22.90;54.10
48806;DHT22;34625;47.176;27.548;2023-04-25T02:45:44;22.90;54.00
48806;DHT22;34625;47.176;27.548;2023-04-25T02:48:11;22.90;54.00
48806;DHT22;34625;47.176;27.548;2023-04-25T02:50:37;22.80;54.00
48806;DHT22;34625;47.176;27.548;2023-04-25T02:53:03;22.80;53.90
48806;DHT22;34625;47.176;27.548;2023-04-25T02:55:36;22.80;53.90
48806;DHT22;34625;47.176;27.548;2023-04-25T02:58:03;22.70;53.90
48806;DHT22;34625;47.176;27.548;2023-04-25T03:00:43;22.70;54.00
48806;DHT22;34625;47.176;27.548;2023-04-25T03:03:09;22.80;53.70
48806;DHT22;34625;47.176;27.548;2023-04-25T03:05:35;22.70;54.10
48806;DHT22;34625;47.176;27.548;2023-04-25T03:08:01;22.80;54.20
48806;DHT22;34625;47.176;27.548;2023-04-25T03:10:28;22.70;54.20
48806;DHT22;34625;47.176;27.548;2023-04-25T03:12:56;22.70;53.90
48806;DHT22;34625;47.176;27.548;2023-04-25T03:15:22;22.70;54.20
48806;DHT22;34625;47.176;27.548;2023-04-25T03:17:48;22.70;54.20
48806;DHT22;34625;47.176;27.548;2023-04-25T03:20:14;22.80;54.10
48806;DHT22;34625;47.176;27.548;2023-04-25T03:22:40;22.70;53.90
48806;DHT22;34625;47.176;27.548;2023-04-25T03:25:07;22.80;54.00
48806;DHT22;34625;47.176;27.548;2023-04-25T03:27:34;22.90;54.00
48806;DHT22;34625;47.176;27.548;2023-04-25T03:30:00;22.80;53.80
48806;DHT22;34625;47.176;27.548;2023-04-25T03:32:26;22.90;53.90
48806;DHT22;34625;47.176;27.548;2023-04-25T03:34:52;22.80;53.80
48806;DHT22;34625;47.176;27.548;2023-04-25T03:37:18;22.80;53.90
48806;DHT22;34625;47.176;27.548;2023-04-25T03:39:44;22.70;53.70
48806;DHT22;34625;47.176;27.548;2023-04-25T03:42:11;22.80;53.90
48806;DHT22;34625;47.176;27.548;2023-04-25T03:44:37;22.80;53.90
48806;DHT22;34625;47.176;27.548;2023-04-25T03:47:03;22.90;54.00
48806;DHT22;34625;47.176;27.548;2023-04-25T03:49:29;22.70;53.80
48806;DHT22;34625;47.176;27.548;2023-04-25T03:52:03;22.80;53.80
48806;DHT22;34625;47.176;27.548;2023-04-25T03:54:34;22.80;53.80
48806;DHT22;34625;47.176;27.548;2023-04-25T03:57:13;22.80;52.70
48806;DHT22;34625;47.176;27.548;2023-04-25T03:59:39;22.70;53.70
48806;DHT22;34625;47.176;27.548;2023-04-25T04:02:08;22.90;53.00
48806;DHT22;34625;47.176;27.548;2023-04-25T04:04:35;22.80;52.60
48806;DHT22;34625;47.176;27.548;2023-04-25T04:07:02;22.70;53.10
48806;DHT22;34625;47.176;27.548;2023-04-25T04:09:31;22.70;54.00
48806;DHT22;34625;47.176;27.548;2023-04-25T04:11:59;22.80;53.50
48806;DHT22;34625;47.176;27.548;2023-04-25T04:14:29;22.70;53.90
48806;DHT22;34625;47.176;27.548;2023-04-25T04:16:55;22.70;53.80
48806;DHT22;34625;47.176;27.548;2023-04-25T04:19:22;22.80;54.10
48806;DHT22;34625;47.176;27.548;2023-04-25T04:22:17;22.80;56.80
48806;DHT22;34625;47.176;27.548;2023-04-25T04:24:43;23.20;58.90
48806;DHT22;34625;47.176;27.548;2023-04-25T04:27:14;23.40;57.80
48806;DHT22;34625;47.176;27.548;2023-04-25T04:29:52;23.40;59.20
48806;DHT22;34625;47.176;27.548;2023-04-25T04:32:31;23.50;54.30
48806;DHT22;34625;47.176;27.548;2023-04-25T04:34:58;23.30;52.90
48806;DHT22;34625;47.176;27.548;2023-04-25T04:37:25;23.40;51.80
48806;DHT22;34625;47.176;27.548;2023-04-25T04:39:51;23.40;51.10
48806;DHT22;34625;47.176;27.548;2023-04-25T04:42:36;23.40;50.90
48806;DHT22;34625;47.176;27.548;2023-04-25T04:45:14;23.20;50.80
48806;DHT22;34625;47.176;27.548;2023-04-25T04:48:00;23.10;51.10
48806;DHT22;34625;47.176;27.548;2023-04-25T04:50:32;23.20;51.40
48806;DHT22;34625;47.176;27.548;2023-04-25T04:53:21;23.20;51.80
48806;DHT22;34625;47.176;27.548;2023-04-25T04:55:56;23.30;52.00
48806;DHT22;34625;47.176;27.548;2023-04-25T04:58:22;23.30;52.20
48806;DHT22;34625;47.176;27.548;2023-04-25T05:01:02;23.30;52.20
48806;DHT22;34625;47.176;27.548;2023-04-25T05:03:48;23.30;51.00
48806;DHT22;34625;47.176;27.548;2023-04-25T05:06:43;23.40;52.30
48806;DHT22;34625;47.176;27.548;2023-04-25T05:09:26;23.40;52.10
48806;DHT22;34625;47.176;27.548;2023-04-25T05:12:05;23.40;52.50
48806;DHT22;34625;47.176;27.548;2023-04-25T05:14:50;23.20;48.00
48806;DHT22;34625;47.176;27.548;2023-04-25T05:17:35;23.40;48.40
48806;DHT22;34625;47.176;27.548;2023-04-25T05:20:11;23.30;48.20
48806;DHT22;34625;47.176;27.548;2023-04-25T05:22:58;23.30;49.40
48806;DHT22;34625;47.176;27.548;2023-04-25T05:25:44;23.20;49.50
48806;DHT22;34625;47.176;27.548;2023-04-25T05:28:40;23.30;50.70
48806;DHT22;34625;47.176;27.548;2023-04-25T05:31:27;23.40;48.60
48806;DHT22;34625;47.176;27.548;2023-04-25T05:34:14;23.40;50.90
48806;DHT22;34625;47.176;27.548;2023-04-25T05:37:04;23.40;49.70
48806;DHT22;34625;47.176;27.548;2023-04-25T05:39:32;23.30;50.50
48806;DHT22;34625;47.176;27.548;2023-04-25T05:42:16;23.40;49.90
48806;DHT22;34625;47.176;27.548;2023-04-25T05:45:08;23.30;47.80
48806;DHT22;34625;47.176;27.548;2023-04-25T05:47:57;23.40;47.70
48806;DHT22;34625;47.176;27.548;2023-04-25T05:50:56;23.40;46.40
48806;DHT22;34625;47.176;27.548;2023-04-25T05:53:45;23.20;46.50
48806;DHT22;34625;47.176;27.548;2023-04-25T05:56:13;23.20;49.20
48806;DHT22;34625;47.176;27.548;2023-04-25T05:58:39;23.40;52.60
48806;DHT22;34625;47.176;27.548;2023-04-25T06:01:06;23.50;52.50
48806;DHT22;34625;47.176;27.548;2023-04-25T06:03:33;23.70;51.80
48806;DHT22;34625;47.176;27.548;2023-04-25T06:05:59;23.70;51.40
48806;DHT22;34625;47.176;27.548;2023-04-25T06:08:25;23.70;50.50
48806;DHT22;34625;47.176;27.548;2023-04-25T06:10:52;23.70;53.30
48806;DHT22;34625;47.176;27.548;2023-04-25T06:13:18;23.80;50.70
48806;DHT22;34625;47.176;27.548;2023-04-25T06:15:44;23.70;50.60
48806;DHT22;34625;47.176;27.548;2023-04-25T06:18:11;23.70;50.10
48806;DHT22;34625;47.176;27.548;2023-04-25T06:20:37;23.70;50.60
48806;DHT22;34625;47.176;27.548;2023-04-25T06:23:03;23.70;48.50
48806;DHT22;34625;47.176;27.548;2023-04-25T06:25:52;23.80;49.50
48806;DHT22;34625;47.176;27.548;2023-04-25T06:28:19;23.90;49.90
48806;DHT22;34625;47.176;27.548;2023-04-25T06:30:45;23.70;47.60
48806;DHT22;34625;47.176;27.548;2023-04-25T06:33:16;23.80;49.50
48806;DHT22;34625;47.176;27.548;2023-04-25T06:35:42;23.90;50.30
48806;DHT22;34625;47.176;27.548;2023-04-25T06:38:11;24.00;50.20
48806;DHT22;34625;47.176;27.548;2023-04-25T06:40:38;23.90;50.10
48806;DHT22;34625;47.176;27.548;2023-04-25T06:43:05;23.90;49.90
48806;DHT22;34625;47.176;27.548;2023-04-25T06:45:43;23.80;49.50
48806;DHT22;34625;47.176;27.548;2023-04-25T06:48:09;24.00;47.10
48806;DHT22;34625;47.176;27.548;2023-04-25T06:50:35;23.80;49.20
48806;DHT22;34625;47.176;27.548;2023-04-25T06:53:01;23.90;49.70
48806;DHT22;34625;47.176;27.548;2023-04-25T06:55:29;23.80;49.70
48806;DHT22;34625;47.176;27.548;2023-04-25T06:58:15;23.90;49.70
48806;DHT22;34625;47.176;27.548;2023-04-25T07:00:58;23.80;49.40
48806;DHT22;34625;47.176;27.548;2023-04-25T07:03:25;23.80;46.50
48806;DHT22;34625;47.176;27.548;2023-04-25T07:05:56;23.80;48.80
48806;DHT22;34625;47.176;27.548;2023-04-25T07:08:23;23.70;49.70
48806;DHT22;34625;47.176;27.548;2023-04-25T07:10:49;23.70;48.60
48806;DHT22;34625;47.176;27.548;2023-04-25T07:13:16;23.80;48.40
48806;DHT22;34625;47.176;27.548;2023-04-25T07:15:42;23.70;51.10
48806;DHT22;34625;47.176;27.548;2023-04-25T07:18:10;23.70;49.40
48806;DHT22;34625;47.176;27.548;2023-04-25T07:20:36;23.60;50.20
48806;DHT22;34625;47.176;27.548;2023-04-25T07:23:03;23.70;49.70
48806;DHT22;34625;47.176;27.548;2023-04-25T07:25:29;23.60;51.60
48806;DHT22;34625;47.176;27.548;2023-04-25T07:27:56;23.70;52.30
48806;DHT22;34625;47.176;27.548;2023-04-25T07:30:22;23.70;50.60
48806;DHT22;34625;47.176;27.548;2023-04-25T07:32:49;23.70;52.50
48806;DHT22;34625;47.176;27.548;2023-04-25T07:35:16;23.70;52.40
48806;DHT22;34625;47.176;27.548;2023-04-25T07:37:42;23.70;52.70
48806;DHT22;34625;47.176;27.548;2023-04-25T07:40:12;23.70;52.50
48806;DHT22;34625;47.176;27.548;2023-04-25T07:42:43;23.70;52.30
48806;DHT22;34625;47.176;27.548;2023-04-25T07:45:12;23.70;52.50
48806;DHT22;34625;47.176;27.548;2023-04-25T07:47:39;23.90;52.10
48806;DHT22;34625;47.176;27.548;2023-04-25T07:50:06;23.70;51.60
48806;DHT22;34625;47.176;27.548;2023-04-25T07:52:33;23.90;52.60
48806;DHT22;34625;47.176;27.548;2023-04-25T07:55:07;23.90;52.40
48806;DHT22;34625;47.176;27.548;2023-04-25T07:57:53;23.80;51.30
48806;DHT22;34625;47.176;27.548;2023-04-25T08:00:20;23.90;52.40
48806;DHT22;34625;47.176;27.548;2023-04-25T08:02:53;23.80;53.00
48806;DHT22;34625;47.176;27.548;2023-04-25T08:05:20;23.90;53.60
48806;DHT22;34625;47.176;27.548;2023-04-25T08:07:51;23.90;51.90
48806;DHT22;34625;47.176;27.548;2023-04-25T08:10:17;23.80;52.70
48806;DHT22;34625;47.176;27.548;2023-04-25T08:12:43;23.90;52.80
48806;DHT22;34625;47.176;27.548;2023-04-25T08:15:09;23.70;52.60
48806;DHT22;34625;47.176;27.548;2023-04-25T08:17:38;23.80;53.20
48806;DHT22;34625;47.176;27.548;2023-04-25T08:20:05;23.70;51.60
48806;DHT22;34625;47.176;27.548;2023-04-25T08:22:33;23.70;51.90
48806;DHT22;34625;47.176;27.548;2023-04-25T08:25:22;23.80;53.80
48806;DHT22;34625;47.176;27.548;2023-04-25T08:27:49;23.70;53.70
48806;DHT22;34625;47.176;27.548;2023-04-25T08:30:16;23.90;53.20
48806;DHT22;34625;47.176;27.548;2023-04-25T08:32:42;24.00;52.70
48806;DHT22;34625;47.176;27.548;2023-04-25T08:35:27;23.90;51.20
48806;DHT22;34625;47.176;27.548;2023-04-25T08:37:53;23.80;52.20
48806;DHT22;34625;47.176;27.548;2023-04-25T08:40:22;23.80;52.40
48806;DHT22;34625;47.176;27.548;2023-04-25T08:43:14;23.90;53.60
48806;DHT22;34625;47.176;27.548;2023-04-25T08:45:43;23.80;54.00
48806;DHT22;34625;47.176;27.548;2023-04-25T08:48:16;23.90;54.00
48806;DHT22;34625;47.176;27.548;2023-04-25T08:50:51;23.90;52.20
48806;DHT22;34625;47.176;27.548;2023-04-25T08:53:29;24.00;56.30
48806;DHT22;34625;47.176;27.548;2023-04-25T08:55:59;23.90;58.20
48806;DHT22;34625;47.176;27.548;2023-04-25T08:58:28;24.00;58.50
48806;DHT22;34625;47.176;27.548;2023-04-25T09:00:54;24.00;55.30
48806;DHT22;34625;47.176;27.548;2023-04-25T09:03:24;24.10;56.00
48806;DHT22;34625;47.176;27.548;2023-04-25T09:05:51;24.00;53.90
48806;DHT22;34625;47.176;27.548;2023-04-25T09:08:18;23.90;55.30
48806;DHT22;34625;47.176;27.548;2023-04-25T09:10:44;24.00;54.90
48806;DHT22;34625;47.176;27.548;2023-04-25T09:13:14;23.90;54.40
48806;DHT22;34625;47.176;27.548;2023-04-25T09:16:08;24.00;54.40
48806;DHT22;34625;47.176;27.548;2023-04-25T09:18:42;23.90;54.80
48806;DHT22;34625;47.176;27.548;2023-04-25T09:21:11;24.00;53.50
48806;DHT22;34625;47.176;27.548;2023-04-25T09:23:43;23.90;54.80
48806;DHT22;34625;47.176;27.548;2023-04-25T09:26:10;24.10;54.50
48806;DHT22;34625;47.176;27.548;2023-04-25T09:28:40;23.90;54.00
48806;DHT22;34625;47.176;27.548;2023-04-25T09:31:11;24.00;53.10
48806;DHT22;34625;47.176;27.548;2023-04-25T09:33:45;24.00;51.30
48806;DHT22;34625;47.176;27.548;2023-04-25T09:36:11;24.10;49.50
48806;DHT22;34625;47.176;27.548;2023-04-25T09:38:59;24.20;50.50
48806;DHT22;34625;47.176;27.548;2023-04-25T09:41:29;24.30;52.90
48806;DHT22;34625;47.176;27.548;2023-04-25T09:43:59;24.40;53.30
48806;DHT22;34625;47.176;27.548;2023-04-25T09:46:34;24.50;54.20
48806;DHT22;34625;47.176;27.548;2023-04-25T09:49:07;24.60;57.60
48806;DHT22;34625;47.176;27.548;2023-04-25T09:51:55;25.10;58.70
48806;DHT22;34625;47.176;27.548;2023-04-25T09:54:23;25.00;48.80
48806;DHT22;34625;47.176;27.548;2023-04-25T09:56:57;24.90;48.20
48806;DHT22;34625;47.176;27.548;2023-04-25T09:59:27;24.70;49.30
48806;DHT22;34625;47.176;27.548;2023-04-25T10:01:57;24.60;49.70
48806;DHT22;34625;47.176;27.548;2023-04-25T10:04:34;24.70;51.20
48806;DHT22;34625;47.176;27.548;2023-04-25T10:07:08;24.50;51.10
48806;DHT22;34625;47.176;27.548;2023-04-25T10:09:39;24.60;55.90
48806;DHT22;34625;47.176;27.548;2023-04-25T10:12:06;24.70;56.60
48806;DHT22;34625;47.176;27.548;2023-04-25T10:14:34;24.90;58.00
48806;DHT22;34625;47.176;27.548;2023-04-25T10:17:00;24.70;55.90
48806;DHT22;34625;47.176;27.548;2023-04-25T10:19:27;24.70;53.90
48806;DHT22;34625;47.176;27.548;2023-04-25T10:24:25;24.60;54.40
48806;DHT22;34625;47.176;27.548;2023-04-25T10:26:52;24.50;54.30
48806;DHT22;34625;47.176;27.548;2023-04-25T10:29:25;24.40;54.20
48806;DHT22;34625;47.176;27.548;2023-04-25T10:31:51;24.40;54.50
48806;DHT22;34625;47.176;27.548;2023-04-25T10:34:18;24.50;49.10
48806;DHT22;34625;47.176;27.548;2023-04-25T10:36:50;24.60;48.60
48806;DHT22;34625;47.176;27.548;2023-04-25T10:39:24;24.60;49.20
48806;DHT22;34625;47.176;27.548;2023-04-25T10:41:56;24.40;50.00
48806;DHT22;34625;47.176;27.548;2023-04-25T10:44:22;24.50;56.80
48806;DHT22;34625;47.176;27.548;2023-04-25T10:46:48;24.50;55.90
48806;DHT22;34625;47.176;27.548;2023-04-25T10:49:33;24.60;55.60
48806;DHT22;34625;47.176;27.548;2023-04-25T10:52:25;24.50;55.70
48806;DHT22;34625;47.176;27.548;2023-04-25T10:54:54;24.50;55.50
48806;DHT22;34625;47.176;27.548;2023-04-25T10:57:36;24.40;55.20
48806;DHT22;34625;47.176;27.548;2023-04-25T11:02:31;24.40;54.70
48806;DHT22;34625;47.176;27.548;2023-04-25T11:04:57;24.40;55.00
48806;DHT22;34625;47.176;27.548;2023-04-25T11:07:43;24.30;55.00
48806;DHT22;34625;47.176;27.548;2023-04-25T11:10:10;24.20;55.00
48806;DHT22;34625;47.176;27.548;2023-04-25T11:12:36;24.30;55.10
48806;DHT22;34625;47.176;27.548;2023-04-25T11:15:06;24.20;54.90
48806;DHT22;34625;47.176;27.548;2023-04-25T11:17:33;24.30;54.70
48806;DHT22;34625;47.176;27.548;2023-04-25T11:19:59;24.20;55.20
48806;DHT22;34625;47.176;27.548;2023-04-25T11:22:27;24.30;55.20
48806;DHT22;34625;47.176;27.548;2023-04-25T11:24:53;24.20;54.80
48806;DHT22;34625;47.176;27.548;2023-04-25T11:27:21;24.30;55.00
48806;DHT22;34625;47.176;27.548;2023-04-25T11:29:47;24.10;56.10
48806;DHT22;34625;47.176;27.548;2023-04-25T11:32:17;24.10;57.50
48806;DHT22;34625;47.176;27.548;2023-04-25T11:34:44;24.00;57.00
48806;DHT22;34625;47.176;27.548;2023-04-25T11:37:11;24.00;56.70
48806;DHT22;34625;47.176;27.548;2023-04-25T11:39:44;24.10;55.80
48806;DHT22;34625;47.176;27.548;2023-04-25T11:42:11;24.10;55.70
48806;DHT22;34625;47.176;27.548;2023-04-25T11:44:38;24.10;54.10
48806;DHT22;34625;47.176;27.548;2023-04-25T11:47:05;24.00;55.90
48806;DHT22;34625;47.176;27.548;2023-04-25T11:49:31;24.00;55.90
48806;DHT22;34625;47.176;27.548;2023-04-25T11:51:58;24.10;56.10
48806;DHT22;34625;47.176;27.548;2023-04-25T11:54:24;24.00;54.20
48806;DHT22;34625;47.176;27.548;2023-04-25T11:56:50;24.10;55.10
48806;DHT22;34625;47.176;27.548;2023-04-25T11:59:16;24.00;54.40
48806;DHT22;34625;47.176;27.548;2023-04-25T12:01:50;24.10;54.50
48806;DHT22;34625;47.176;27.548;2023-04-25T12:04:23;24.10;53.80
48806;DHT22;34625;47.176;27.548;2023-04-25T12:06:53;24.10;53.90
48806;DHT22;34625;47.176;27.548;2023-04-25T12:09:29;24.10;53.40
48806;DHT22;34625;47.176;27.548;2023-04-25T12:11:57;24.30;52.70
48806;DHT22;34625;47.176;27.548;2023-04-25T12:14:30;24.20;52.60
48806;DHT22;34625;47.176;27.548;2023-04-25T12:16:59;24.10;52.10
48806;DHT22;34625;47.176;27.548;2023-04-25T12:19:26;24.10;52.70
48806;DHT22;34625;47.176;27.548;2023-04-25T12:21:52;24.00;52.80
48806;DHT22;34625;47.176;27.548;2023-04-25T12:24:23;24.10;52.50
48806;DHT22;34625;47.176;27.548;2023-04-25T12:27:03;24.10;51.70
48806;DHT22;34625;47.176;27.548;2023-04-25T12:29:33;24.00;51.60
48806;DHT22;34625;47.176;27.548;2023-04-25T12:32:00;24.00;51.60
48806;DHT22;34625;47.176;27.548;2023-04-25T12:34:29;23.90;53.20
48806;DHT22;34625;47.176;27.548;2023-04-25T12:36:57;23.90;53.20
48806;DHT22;34625;47.176;27.548;2023-04-25T12:39:24;23.90;52.00
48806;DHT22;34625;47.176;27.548;2023-04-25T12:41:53;23.90;51.40
48806;DHT22;34625;47.176;27.548;2023-04-25T12:44:20;23.80;52.60
48806;DHT22;34625;47.176;27.548;2023-04-25T12:46:47;23.80;52.60
48806;DHT22;34625;47.176;27.548;2023-04-25T12:49:13;23.70;53.60
48806;DHT22;34625;47.176;27.548;2023-04-25T12:51:39;23.70;51.90
48806;DHT22;34625;47.176;27.548;2023-04-25T12:54:07;23.70;53.10
48806;DHT22;34625;47.176;27.548;2023-04-25T12:56:35;23.80;52.30
48806;DHT22;34625;47.176;27.548;2023-04-25T12:59:02;23.70;53.70
48806;DHT22;34625;47.176;27.548;2023-04-25T13:01:31;23.80;52.00
48806;DHT22;34625;47.176;27.548;2023-04-25T13:03:57;23.70;53.50
48806;DHT22;34625;47.176;27.548;2023-04-25T13:06:23;23.80;52.00
48806;DHT22;34625;47.176;27.548;2023-04-25T13:08:50;23.80;53.50
48806;DHT22;34625;47.176;27.548;2023-04-25T13:11:16;23.80;54.10
48806;DHT22;34625;47.176;27.548;2023-04-25T13:13:43;23.70;52.80
48806;DHT22;34625;47.176;27.548;2023-04-25T13:16:09;23.80;53.70
48806;DHT22;34625;47.176;27.548;2023-04-25T13:18:35;23.80;52.40
48806;DHT22;34625;47.176;27.548;2023-04-25T13:21:01;23.80;54.10
48806;DHT22;34625;47.176;27.548;2023-04-25T13:23:29;23.70;53.30
48806;DHT22;34625;47.176;27.548;2023-04-25T13:25:56;23.70;54.20
48806;DHT22;34625;47.176;27.548;2023-04-25T13:28:27;23.90;54.30
48806;DHT22;34625;47.176;27.548;2023-04-25T13:30:53;23.80;54.10
48806;DHT22;34625;47.176;27.548;2023-04-25T13:33:20;23.90;53.70
48806;DHT22;34625;47.176;27.548;2023-04-25T13:35:47;23.90;54.20
48806;DHT22;34625;47.176;27.548;2023-04-25T13:38:25;23.80;53.70
48806;DHT22;34625;47.176;27.548;2023-04-25T13:40:52;23.90;54.10
48806;DHT22;34625;47.176;27.548;2023-04-25T13:43:22;23.80;54.00
48806;DHT22;34625;47.176;27.548;2023-04-25T13:45:49;23.80;53.80
48806;DHT22;34625;47.176;27.548;2023-04-25T13:48:15;23.90;53.80
48806;DHT22;34625;47.176;27.548;2023-04-25T13:50:41;23.70;53.70
48806;DHT22;34625;47.176;27.548;2023-04-25T13:53:07;23.80;53.80
48806;DHT22;34625;47.176;27.548;2023-04-25T13:55:34;23.80;54.00
48806;DHT22;34625;47.176;27.548;2023-04-25T13:58:03;23.70;53.90
48806;DHT22;34625;47.176;27.548;2023-04-25T14:00:35;23.80;53.40
48806;DHT22;34625;47.176;27.548;2023-04-25T14:03:01;23.80;53.50
48806;DHT22;34625;47.176;27.548;2023-04-25T14:05:30;23.80;53.10
48806;DHT22;34625;47.176;27.548;2023-04-25T14:07:57;23.80;53.10
48806;DHT22;34625;47.176;27.548;2023-04-25T14:10:23;23.70;52.80
48806;DHT22;34625;47.176;27.548;2023-04-25T14:12:49;23.90;52.60
48806;DHT22;34625;47.176;27.548;2023-04-25T14:15:15;23.80;52.10
48806;DHT22;34625;47.176;27.548;2023-04-25T14:17:41;23.90;52.00
48806;DHT22;34625;47.176;27.548;2023-04-25T14:20:08;23.70;51.70
48806;DHT22;34625;47.176;27.548;2023-04-25T14:22:36;23.80;51.50
48806;DHT22;34625;47.176;27.548;2023-04-25T14:25:03;23.80;51.50
48806;DHT22;34625;47.176;27.548;2023-04-25T14:27:29;23.80;51.50
48806;DHT22;34625;47.176;27.548;2023-04-25T14:29:55;23.90;51.60
48806;DHT22;34625;47.176;27.548;2023-04-25T14:32:21;23.90;51.30
48806;DHT22;34625;47.176;27.548;2023-04-25T14:34:47;23.90;51.00
48806;DHT22;34625;47.176;27.548;2023-04-25T14:37:13;23.90;50.60
48806;DHT22;34625;47.176;27.548;2023-04-25T14:39:39;23.80;50.60
48806;DHT22;34625;47.176;27.548;2023-04-25T14:42:06;23.80;50.50
48806;DHT22;34625;47.176;27.548;2023-04-25T14:44:32;23.90;50.60
48806;DHT22;34625;47.176;27.548;2023-04-25T14:46:58;23.90;50.40
48806;DHT22;34625;47.176;27.548;2023-04-25T14:49:24;23.90;50.20
48806;DHT22;34625;47.176;27.548;2023-04-25T14:51:50;23.70;50.10
48806;DHT22;34625;47.176;27.548;2023-04-25T14:54:17;23.80;50.00
48806;DHT22;34625;47.176;27.548;2023-04-25T14:56:43;23.90;50.20
48806;DHT22;34625;47.176;27.548;2023-04-25T14:59:09;23.80;50.00
48806;DHT22;34625;47.176;27.548;2023-04-25T15:01:35;23.90;50.00
48806;DHT22;34625;47.176;27.548;2023-04-25T15:04:01;23.80;50.00
48806;DHT22;34625;47.176;27.548;2023-04-25T15:06:27;23.80;50.00
48806;DHT22;34625;47.176;27.548;2023-04-25T15:08:54;23.70;50.20
48806;DHT22;34625;47.176;27.548;2023-04-25T15:11:21;23.90;50.40
48806;DHT22;34625;47.176;27.548;2023-04-25T15:13:47;23.90;50.60
48806;DHT22;34625;47.176;27.548;2023-04-25T15:16:14;23.70;50.60
48806;DHT22;34625;47.176;27.548;2023-04-25T15:18:40;23.90;50.80
48806;DHT22;34625;47.176;27.548;2023-04-25T15:21:06;23.80;50.80
48806;DHT22;34625;47.176;27.548;2023-04-25T15:23:33;23.70;50.90
48806;DHT22;34625;47.176;27.548;2023-04-25T15:25:59;23.70;49.90
48806;DHT22;34625;47.176;27.548;2023-04-25T15:28:25;23.70;50.60
48806;DHT22;34625;47.176;27.548;2023-04-25T15:30:51;23.70;50.50
48806;DHT22;34625;47.176;27.548;2023-04-25T15:33:17;23.70;52.50
48806;DHT22;34625;47.176;27.548;2023-04-25T15:35:44;23.80;51.50